createdAt,value
2023-04-17T00:00:43.584Z,59.58
2023-04-17T00:03:47.549Z,59.22
2023-04-17T00:06:53.888Z,59.96
2023-04-17T00:09:57.196Z,59.90
2023-04-17T00:12:59.893Z,60.17
2023-04-17T00:16:02.855Z,59.94
2023-04-17T00:19:06.330Z,60.46
2023-04-17T00:22:09.108Z,61.43
2023-04-17T00:25:14.767Z,61.58
2023-04-17T00:28:17.384Z,61.52
2023-04-17T00:31:20.255Z,61.38
2023-04-17T00:34:22.874Z,61.75
2023-04-17T00:37:25.540Z,61.85
2023-04-17T00:40:28.243Z,62.16
2023-04-17T00:43:30.975Z,62.42
2023-04-17T00:46:33.755Z,62.10
2023-04-17T00:49:36.864Z,62.32
2023-04-17T00:52:39.755Z,62.10
2023-04-17T00:55:44.774Z,62.89
2023-04-17T00:58:48.819Z,64.38
2023-04-17T01:01:51.554Z,63.62
2023-04-17T01:04:54.191Z,63.19
2023-04-17T01:07:59.646Z,62.56
2023-04-17T01:11:02.463Z,63.30
2023-04-17T01:14:05.299Z,63.72
2023-04-17T01:17:08.053Z,63.15
2023-04-17T01:20:12.021Z,62.63
2023-04-17T01:23:15.789Z,62.01
2023-04-17T01:26:28.295Z,62.46
2023-04-17T01:29:31.317Z,62.87
2023-04-17T01:32:34.282Z,63.05
2023-04-17T01:35:36.912Z,63.10
2023-04-17T01:38:40.568Z,63.75
2023-04-17T01:41:43.494Z,63.21
2023-04-17T01:44:46.379Z,63.31
2023-04-17T01:47:49.038Z,62.64
2023-04-17T01:50:52.434Z,62.34
2023-04-17T01:53:55.913Z,62.47
2023-04-17T01:56:58.462Z,62.48
2023-04-17T02:00:01.686Z,62.55
2023-04-17T02:03:15.843Z,62.24
2023-04-17T02:06:19.472Z,62.84
2023-04-17T02:09:22.580Z,61.18
2023-04-17T02:12:25.371Z,61.56
2023-04-17T02:15:28.865Z,61.48
2023-04-17T02:18:32.444Z,60.59
2023-04-17T02:21:37.051Z,60.51
2023-04-17T02:24:41.121Z,60.73
2023-04-17T02:27:44.424Z,60.28
2023-04-17T02:30:46.940Z,60.19
2023-04-17T02:33:50.889Z,60.48
2023-04-17T02:36:53.352Z,60.45
2023-04-17T02:39:59.434Z,60.77
2023-04-17T02:43:02.871Z,61.23
2023-04-17T02:46:06.471Z,61.45
2023-04-17T02:49:10.607Z,60.98
2023-04-17T02:52:15.576Z,61.49
2023-04-17T02:55:19.164Z,61.25
2023-04-17T02:58:21.882Z,61.46
2023-04-17T03:01:26.415Z,61.77
2023-04-17T03:04:29.230Z,61.47
2023-04-17T03:07:31.777Z,61.49
2023-04-17T03:10:35.442Z,61.60
2023-04-17T03:13:38.444Z,62.34
2023-04-17T03:16:40.978Z,61.92
2023-04-17T03:19:44.462Z,62.22
2023-04-17T03:22:48.014Z,62.08
2023-04-17T03:25:51.109Z,62.60
2023-04-17T03:28:54.489Z,61.74
2023-04-17T03:31:58.552Z,61.82
2023-04-17T03:35:02.043Z,62.62
2023-04-17T03:38:04.743Z,61.07
2023-04-17T03:41:07.295Z,60.79
2023-04-17T03:44:10.624Z,61.54
2023-04-17T03:47:13.158Z,60.53
2023-04-17T03:50:17.613Z,61.20
2023-04-17T03:53:31.039Z,60.48
2023-04-17T03:56:37.620Z,60.56
2023-04-17T03:59:41.152Z,59.79
2023-04-17T04:02:44.038Z,60.15
2023-04-17T04:05:47.899Z,60.22
2023-04-17T04:08:50.734Z,59.43
2023-04-17T04:11:54.060Z,59.60
2023-04-17T04:14:57.998Z,59.59
2023-04-17T04:18:03.185Z,59.15
2023-04-17T04:21:06.986Z,58.59
2023-04-17T04:24:14.474Z,58.53
2023-04-17T04:27:22.734Z,57.41
2023-04-17T04:30:30.564Z,57.21
2023-04-17T04:33:45.457Z,56.38
2023-04-17T04:36:51.979Z,55.75
2023-04-17T04:40:11.083Z,55.85
2023-04-17T04:43:17.708Z,56.01
2023-04-17T04:46:22.889Z,54.96
2023-04-17T04:49:26.569Z,55.57
2023-04-17T04:52:29.167Z,55.26
2023-04-17T04:55:36.160Z,55.47
2023-04-17T04:58:40.030Z,55.88
2023-04-17T05:01:44.957Z,54.86
2023-04-17T05:04:49.629Z,55.22
2023-04-17T05:07:55.865Z,54.30
2023-04-17T05:11:02.753Z,53.81
2023-04-17T05:14:05.609Z,53.01
2023-04-17T05:17:12.049Z,52.95
2023-04-17T05:20:19.026Z,52.60
2023-04-17T05:23:30.704Z,53.09
2023-04-17T05:26:33.719Z,52.64
2023-04-17T05:29:37.644Z,53.26
2023-04-17T05:32:40.481Z,52.83
2023-04-17T05:36:02.943Z,53.26
2023-04-17T05:39:10.610Z,53.74
2023-04-17T05:42:13.617Z,53.33
2023-04-17T05:45:21.096Z,53.14
2023-04-17T05:48:25.359Z,52.32
2023-04-17T05:51:28.920Z,52.11
2023-04-17T05:54:31.636Z,51.50
2023-04-17T05:57:43.148Z,50.85
2023-04-17T06:00:46.917Z,50.72
2023-04-17T06:03:58.823Z,50.30
2023-04-17T06:07:23.802Z,49.85
2023-04-17T06:11:37.445Z,49.40
2023-04-17T06:14:40.611Z,49.41
2023-04-17T06:17:45.315Z,49.07
2023-04-17T06:20:48.105Z,48.96
2023-04-17T06:23:52.124Z,48.54
2023-04-17T06:26:55.357Z,48.66
2023-04-17T06:30:00.898Z,49.31
2023-04-17T06:33:06.810Z,48.90
2023-04-17T06:36:10.596Z,48.28
2023-04-17T06:39:22.984Z,48.50
2023-04-17T06:42:26.472Z,47.74
2023-04-17T06:45:37.093Z,47.96
2023-04-17T06:48:42.272Z,47.28
2023-04-17T06:51:47.671Z,46.87
2023-04-17T06:55:04.308Z,46.93
2023-04-17T06:58:14.892Z,47.35
2023-04-17T07:01:22.258Z,47.34
2023-04-17T07:04:25.454Z,47.54
2023-04-17T07:07:30.768Z,46.92
2023-04-17T07:10:35.412Z,46.79
2023-04-17T07:13:38.676Z,46.23
2023-04-17T07:16:41.823Z,45.89
2023-04-17T07:19:45.075Z,45.95
2023-04-17T07:22:49.990Z,46.18
2023-04-17T07:25:52.990Z,46.33
2023-04-17T07:28:56.091Z,46.34
2023-04-17T07:32:04.621Z,45.85
2023-04-17T07:35:16.140Z,46.26
2023-04-17T07:38:23.824Z,46.54
2023-04-17T07:41:27.457Z,47.47
2023-04-17T07:44:31.350Z,47.25
2023-04-17T07:48:04.868Z,47.04
2023-04-17T07:51:23.788Z,47.20
2023-04-17T07:54:27.322Z,46.88
2023-04-17T07:57:31.082Z,46.92
2023-04-17T08:00:35.095Z,45.99
2023-04-17T08:03:41.645Z,46.74
2023-04-17T08:06:45.601Z,46.61
2023-04-17T08:09:51.232Z,45.86
2023-04-17T08:12:55.035Z,45.93
2023-04-17T08:15:59.691Z,45.63
2023-04-17T08:19:03.396Z,46.42
2023-04-17T08:22:07.441Z,45.84
2023-04-17T08:25:11.526Z,46.17
2023-04-17T08:28:14.448Z,45.43
2023-04-17T08:31:17.164Z,45.11
2023-04-17T08:34:19.892Z,45.13
2023-04-17T08:37:22.623Z,45.20
2023-04-17T08:40:29.517Z,44.18
2023-04-17T08:43:47.553Z,44.05
2023-04-17T08:47:06.918Z,43.34
2023-04-17T08:50:15.907Z,43.71
2023-04-17T08:53:20.744Z,43.87
2023-04-17T08:56:28.791Z,44.37
2023-04-17T08:59:33.833Z,44.25
2023-04-17T09:02:54.925Z,44.24
2023-04-17T09:05:58.716Z,43.87
2023-04-17T09:09:02.690Z,43.46
2023-04-17T09:12:26.120Z,42.81
2023-04-17T09:15:43.423Z,42.57
2023-04-17T09:19:07.781Z,43.13
2023-04-17T09:22:22.466Z,43.39
2023-04-17T09:25:26.722Z,44.08
2023-04-17T09:28:40.716Z,43.48
2023-04-17T09:36:33.304Z,44.26
2023-04-17T09:40:07.773Z,43.78
2023-04-17T09:43:28.695Z,43.80
2023-04-17T09:47:14.218Z,43.54
2023-04-17T09:50:25.028Z,43.42
2023-04-17T09:53:28.819Z,42.26
2023-04-17T09:56:42.602Z,42.53
2023-04-17T09:59:50.545Z,42.24
2023-04-17T10:02:56.576Z,42.42
2023-04-17T10:06:04.238Z,42.10
2023-04-17T10:09:08.300Z,42.80
2023-04-17T10:12:17.081Z,42.22
2023-04-17T10:15:24.152Z,41.67
2023-04-17T10:18:32.568Z,41.67
2023-04-17T10:21:40.343Z,41.65
2023-04-17T10:24:47.644Z,42.78
2023-04-17T10:27:54.505Z,42.42
2023-04-17T10:31:00.139Z,40.77
2023-04-17T10:34:02.840Z,40.33
2023-04-17T10:37:06.821Z,39.77
2023-04-17T10:40:12.156Z,39.48
2023-04-17T10:43:17.993Z,39.63
2023-04-17T10:46:26.736Z,39.51
2023-04-17T10:49:48.406Z,38.96
2023-04-17T10:52:53.115Z,39.04
2023-04-17T10:55:57.648Z,37.39
2023-04-17T10:59:04.447Z,37.85
2023-04-17T11:02:08.381Z,39.06
2023-04-17T11:05:12.117Z,39.57
2023-04-17T11:08:15.705Z,39.16
2023-04-17T11:11:26.934Z,39.72
2023-04-17T11:14:42.863Z,39.65
2023-04-17T11:17:48.639Z,38.42
2023-04-17T11:20:52.676Z,39.42
2023-04-17T11:23:55.258Z,38.20
2023-04-17T11:27:00.927Z,37.78
2023-04-17T11:30:04.043Z,36.94
2023-04-17T11:33:09.039Z,37.30
2023-04-17T11:36:11.891Z,37.43
2023-04-17T11:39:16.191Z,36.32
2023-04-17T11:42:28.436Z,36.03
2023-04-17T11:45:33.084Z,34.47
2023-04-17T11:48:35.787Z,35.20
2023-04-17T11:51:39.116Z,35.80
2023-04-17T11:54:42.759Z,35.63
2023-04-17T11:57:45.664Z,35.96
2023-04-17T12:01:05.070Z,35.72
2023-04-17T12:04:26.452Z,36.44
2023-04-17T12:07:44.653Z,37.92
2023-04-17T12:10:52.126Z,37.55
2023-04-17T12:13:56.425Z,38.53
2023-04-17T12:16:59.955Z,38.23
2023-04-17T12:20:04.183Z,38.41
2023-04-17T12:23:07.112Z,37.10
2023-04-17T12:26:09.871Z,38.14
2023-04-17T12:29:12.586Z,39.65
2023-04-17T12:32:16.697Z,38.77
2023-04-17T12:35:20.815Z,38.69
2023-04-17T12:38:23.729Z,38.39
2023-04-17T12:41:26.921Z,36.50
2023-04-17T12:44:34.410Z,35.78
2023-04-17T12:47:38.206Z,35.80
2023-04-17T12:50:44.393Z,36.80
2023-04-17T12:53:47.884Z,36.84
2023-04-17T12:57:02.328Z,36.59
2023-04-17T13:00:20.408Z,36.14
2023-04-17T13:03:28.456Z,36.13
2023-04-17T13:06:32.510Z,37.00
2023-04-17T13:09:35.882Z,36.53
2023-04-17T13:12:42.204Z,37.29
2023-04-17T13:15:48.168Z,38.71
2023-04-17T13:18:51.036Z,38.76
2023-04-17T13:21:53.643Z,41.77
2023-04-17T13:24:57.196Z,42.85
2023-04-17T13:28:00.212Z,44.35
2023-04-17T13:31:06.026Z,44.67
2023-04-17T13:34:11.458Z,45.43
2023-04-17T13:37:15.360Z,50.10
2023-04-17T13:40:21.109Z,55.05
2023-04-17T13:43:24.265Z,57.29
2023-04-17T13:46:27.037Z,57.13
2023-04-17T13:49:29.961Z,55.26
2023-04-17T13:52:33.187Z,55.13
2023-04-17T13:55:36.064Z,57.54
2023-04-17T13:58:45.495Z,56.75
2023-04-17T14:01:49.287Z,55.67
2023-04-17T14:04:52.349Z,55.05
2023-04-17T14:07:55.873Z,54.84
2023-04-17T14:10:58.496Z,53.95
2023-04-17T14:14:01.538Z,52.75
2023-04-17T14:17:04.268Z,52.67
2023-04-17T14:20:08.671Z,51.42
2023-04-17T14:23:11.424Z,50.39
2023-04-17T14:26:14.137Z,50.43
2023-04-17T14:29:17.062Z,50.45
2023-04-17T14:32:30.327Z,50.59
2023-04-17T14:35:34.085Z,49.76
2023-04-17T14:38:46.783Z,48.07
2023-04-17T14:41:52.458Z,48.95
2023-04-17T14:44:55.262Z,47.35
2023-04-17T14:47:58.149Z,47.67
2023-04-17T14:51:01.687Z,46.58
2023-04-17T14:54:06.530Z,45.15
2023-04-17T14:57:10.070Z,46.83
2023-04-17T15:00:13.353Z,44.57
2023-04-17T15:03:16.130Z,45.52
2023-04-17T15:06:20.059Z,43.94
2023-04-17T15:09:22.737Z,44.98
2023-04-17T15:12:25.363Z,46.39
2023-04-17T15:15:28.560Z,45.42
2023-04-17T15:18:31.377Z,45.40
2023-04-17T15:21:34.233Z,45.98
2023-04-17T15:24:36.898Z,46.17
2023-04-17T15:27:39.621Z,46.20
2023-04-17T15:30:43.152Z,47.08
2023-04-17T15:33:47.437Z,47.46
2023-04-17T15:36:50.942Z,48.49
2023-04-17T15:39:53.608Z,48.43
2023-04-17T15:42:56.424Z,49.10
2023-04-17T15:46:00.141Z,49.25
2023-04-17T15:49:08.762Z,48.42
2023-04-17T15:52:12.876Z,48.64
2023-04-17T15:55:16.106Z,48.24
2023-04-17T15:58:18.808Z,48.40
2023-04-17T16:01:21.492Z,48.54
2023-04-17T16:04:24.693Z,48.31
2023-04-17T16:07:27.501Z,48.34
2023-04-17T16:10:30.412Z,48.92
2023-04-17T16:13:32.959Z,49.32
2023-04-17T16:16:35.707Z,48.89
2023-04-17T16:19:38.982Z,48.84
2023-04-17T16:22:41.670Z,49.62
2023-04-17T16:25:44.234Z,49.71
2023-04-17T16:28:46.881Z,49.53
2023-04-17T16:31:49.846Z,50.04
2023-04-17T16:34:52.773Z,50.11
2023-04-17T16:37:55.446Z,49.87
2023-04-17T16:40:59.068Z,49.48
2023-04-17T16:44:02.436Z,49.85
2023-04-17T16:47:13.248Z,49.99
2023-04-17T16:50:16.677Z,49.89
2023-04-17T16:53:21.321Z,50.51
2023-04-17T16:56:24.482Z,50.22
2023-04-17T16:59:27.119Z,50.58
2023-04-17T17:02:29.802Z,50.50
2023-04-17T17:05:33.066Z,50.34
2023-04-17T17:08:36.530Z,51.53
2023-04-17T17:11:41.963Z,51.30
2023-04-17T17:14:44.972Z,51.16
2023-04-17T17:17:48.591Z,50.97
2023-04-17T17:20:54.137Z,51.43
2023-04-17T17:23:57.572Z,51.32
2023-04-17T17:27:00.676Z,51.69
2023-04-17T17:30:04.230Z,51.91
2023-04-17T17:33:06.927Z,52.47
2023-04-17T17:36:11.981Z,52.26
2023-04-17T17:39:14.771Z,52.31
2023-04-17T17:42:17.442Z,52.17
2023-04-17T17:45:20.652Z,52.99
2023-04-17T17:48:24.010Z,52.99
2023-04-17T17:51:27.543Z,52.59
2023-04-17T17:54:34.542Z,53.08
2023-04-17T17:57:48.275Z,53.23
2023-04-17T18:00:51.738Z,52.86
2023-04-17T18:03:55.260Z,53.40
2023-04-17T18:06:58.636Z,52.98
2023-04-17T18:10:02.141Z,52.92
2023-04-17T18:13:05.774Z,53.12
2023-04-17T18:16:08.506Z,53.21
2023-04-17T18:19:12.660Z,53.05
2023-04-17T18:22:15.244Z,53.32
2023-04-17T18:25:17.995Z,53.38
2023-04-17T18:28:20.814Z,54.19
2023-04-17T18:31:25.243Z,54.81
2023-04-17T18:34:27.865Z,55.10
2023-04-17T18:37:30.540Z,55.37
2023-04-17T18:40:33.296Z,55.28
2023-04-17T18:43:35.918Z,55.25
2023-04-17T18:46:38.523Z,55.91
2023-04-17T18:49:41.662Z,55.67
2023-04-17T18:52:48.791Z,55.67
2023-04-17T18:55:53.636Z,56.16
2023-04-17T18:58:56.292Z,55.80
2023-04-17T19:01:59.059Z,56.18
2023-04-17T19:05:01.846Z,55.95
2023-04-17T19:08:05.277Z,56.42
2023-04-17T19:11:08.052Z,56.98
2023-04-17T19:14:10.895Z,57.18
2023-04-17T19:17:13.689Z,57.63
2023-04-17T19:20:16.862Z,57.43
2023-04-17T19:23:20.213Z,57.28
2023-04-17T19:26:23.743Z,57.25
2023-04-17T19:29:27.150Z,57.71
2023-04-17T19:32:31.656Z,57.45
2023-04-17T19:35:35.234Z,57.90
2023-04-17T19:38:38.606Z,57.48
2023-04-17T19:41:42.787Z,57.20
2023-04-17T19:44:46.294Z,57.22
2023-04-17T19:47:54.976Z,57.43
2023-04-17T19:51:00.063Z,57.43
2023-04-17T19:54:02.708Z,57.50
2023-04-17T19:57:05.323Z,57.52
2023-04-17T20:00:08.757Z,57.93
2023-04-17T20:03:15.243Z,57.27
2023-04-17T20:06:19.627Z,57.77
2023-04-17T20:09:22.321Z,57.58
2023-04-17T20:12:25.547Z,57.60
2023-04-17T20:15:28.188Z,57.92
2023-04-17T20:18:31.472Z,58.10
2023-04-17T20:21:34.337Z,57.64
2023-04-17T20:24:37.740Z,58.03
2023-04-17T20:27:40.640Z,58.29
2023-04-17T20:30:43.213Z,57.93
2023-04-17T20:33:46.875Z,57.62
2023-04-17T20:36:49.453Z,58.11
2023-04-17T20:39:52.863Z,58.29
2023-04-17T20:42:55.520Z,58.21
2023-04-17T20:45:59.277Z,58.41
2023-04-17T20:49:01.871Z,58.86
2023-04-17T20:52:04.717Z,59.77
2023-04-17T20:55:08.800Z,59.46
2023-04-17T20:58:11.463Z,60.13
2023-04-17T21:01:15.027Z,60.27
2023-04-17T21:04:18.386Z,60.27
2023-04-17T21:07:21.059Z,59.56
2023-04-17T21:10:24.072Z,59.92
2023-04-17T21:13:26.899Z,60.30
2023-04-17T21:16:29.740Z,60.15
2023-04-17T21:19:36.013Z,60.09
2023-04-17T21:22:38.962Z,60.56
2023-04-17T21:25:42.353Z,61.07
2023-04-17T21:28:45.480Z,61.24
2023-04-17T21:31:48.264Z,61.97
2023-04-17T21:34:50.770Z,62.62
2023-04-17T21:37:53.485Z,62.35
2023-04-17T21:40:58.278Z,62.64
2023-04-17T21:44:02.641Z,62.45
2023-04-17T21:47:05.337Z,62.83
2023-04-17T21:50:08.782Z,62.66
2023-04-17T21:53:12.345Z,62.61
2023-04-17T21:56:15.031Z,62.87
2023-04-17T21:59:18.226Z,62.85
2023-04-17T22:02:21.047Z,63.15
2023-04-17T22:05:23.752Z,62.95
2023-04-17T22:08:26.354Z,63.35
2023-04-17T22:11:29.042Z,63.32
2023-04-17T22:14:31.535Z,63.23
2023-04-17T22:17:34.221Z,63.61
2023-04-17T22:20:37.065Z,63.46
2023-04-17T22:23:39.788Z,63.40
2023-04-17T22:26:42.462Z,63.50
2023-04-17T22:29:45.274Z,63.55
2023-04-17T22:32:47.851Z,63.87
2023-04-17T22:35:51.174Z,63.82
2023-04-17T22:38:53.823Z,64.17
2023-04-17T22:41:57.934Z,64.13
2023-04-17T22:45:01.419Z,63.88
2023-04-17T22:48:04.379Z,63.95
2023-04-17T22:51:09.729Z,64.12
2023-04-17T22:54:22.281Z,64.12
2023-04-17T22:57:25.896Z,64.57
2023-04-17T23:00:30.011Z,64.13
2023-04-17T23:03:32.689Z,63.98
2023-04-17T23:06:35.302Z,64.16
2023-04-17T23:09:37.981Z,64.09
2023-04-17T23:12:40.940Z,63.99
2023-04-17T23:15:43.643Z,64.24
2023-04-17T23:18:46.589Z,63.81
2023-04-17T23:21:49.319Z,63.80
2023-04-17T23:24:53.421Z,63.85
2023-04-17T23:27:56.232Z,63.81
2023-04-17T23:31:04.532Z,64.08
2023-04-17T23:34:07.995Z,64.51
2023-04-17T23:37:11.460Z,64.74
2023-04-17T23:40:14.224Z,65.18
2023-04-17T23:43:16.976Z,65.74
2023-04-17T23:46:20.052Z,66.20
2023-04-17T23:49:22.827Z,67.04
2023-04-17T23:52:26.337Z,67.85
2023-04-17T23:55:29.293Z,68.82
2023-04-17T23:58:32.950Z,69.38
